createdAt,value
2017-09-25T00:00:01.717Z,959.58
2017-09-25T00:01:01.709Z,959.54
2017-09-25T00:02:01.701Z,959.51
2017-09-25T00:03:01.692Z,959.55
2017-09-25T00:04:01.684Z,959.56
2017-09-25T00:05:01.676Z,959.57
2017-09-25T00:06:01.668Z,959.52
2017-09-25T00:07:01.657Z,959.52
2017-09-25T00:08:01.650Z,959.53
2017-09-25T00:09:01.669Z,959.52
2017-09-25T00:10:01.634Z,959.54
2017-09-25T00:11:01.624Z,959.54
2017-09-25T00:12:01.617Z,959.55
2017-09-25T00:13:01.609Z,959.54
2017-09-25T00:14:01.599Z,959.53
2017-09-25T00:15:01.591Z,959.56
2017-09-25T00:16:01.582Z,959.54
2017-09-25T00:17:01.575Z,959.55
2017-09-25T00:18:01.565Z,959.54
2017-09-25T00:19:01.579Z,959.56
2017-09-25T00:20:01.552Z,959.58
2017-09-25T00:21:01.539Z,959.55
2017-09-25T00:22:01.582Z,959.53
2017-09-25T00:23:01.524Z,959.54
2017-09-25T00:24:01.515Z,959.53
2017-09-25T00:25:01.517Z,959.54
2017-09-25T00:26:01.499Z,959.55
2017-09-25T00:27:01.490Z,959.53
2017-09-25T00:28:01.484Z,959.51
2017-09-25T00:29:01.474Z,959.47
2017-09-25T00:30:01.465Z,959.47
2017-09-25T00:31:01.463Z,959.43
2017-09-25T00:32:01.448Z,959.41
2017-09-25T00:33:01.458Z,959.41
2017-09-25T00:34:01.431Z,959.42
2017-09-25T00:35:01.424Z,959.39
2017-09-25T00:36:01.446Z,959.4
2017-09-25T00:37:01.413Z,959.42
2017-09-25T00:38:01.397Z,959.4
2017-09-25T00:39:01.390Z,959.39
2017-09-25T00:40:01.382Z,959.41
2017-09-25T00:41:01.373Z,959.4
2017-09-25T00:42:01.365Z,959.42
2017-09-25T00:43:01.355Z,959.43
2017-09-25T00:44:01.348Z,959.42
2017-09-25T00:45:01.339Z,959.41
2017-09-25T00:46:01.331Z,959.41
2017-09-25T00:47:01.322Z,959.41
2017-09-25T00:48:01.313Z,959.43
2017-09-25T00:49:01.306Z,959.37
2017-09-25T00:50:01.296Z,959.38
2017-09-25T00:51:01.288Z,959.4
2017-09-25T00:52:01.279Z,959.35
2017-09-25T00:53:01.273Z,959.36
2017-09-25T00:54:01.263Z,959.37
2017-09-25T00:55:01.255Z,959.34
2017-09-25T00:56:01.247Z,959.36
2017-09-25T00:57:01.239Z,959.38
2017-09-25T00:58:01.228Z,959.36
2017-09-25T00:59:01.221Z,959.35
2017-09-25T01:00:01.214Z,959.33
2017-09-25T01:01:01.203Z,959.33
2017-09-25T01:02:01.196Z,959.35
2017-09-25T01:03:01.186Z,959.33
2017-09-25T01:04:01.179Z,959.29
2017-09-25T01:05:01.172Z,959.3
2017-09-25T01:06:01.161Z,959.26
2017-09-25T01:07:01.154Z,959.23
2017-09-25T01:08:01.146Z,959.24
2017-09-25T01:09:01.136Z,959.27
2017-09-25T01:10:01.127Z,959.28
2017-09-25T01:11:01.119Z,959.29
2017-09-25T01:12:01.111Z,959.27
2017-09-25T01:13:01.102Z,959.24
2017-09-25T01:14:01.095Z,959.28
2017-09-25T01:15:01.087Z,959.29
2017-09-25T01:16:01.077Z,959.27
2017-09-25T01:17:01.070Z,959.28
2017-09-25T01:18:01.062Z,959.26
2017-09-25T01:19:01.072Z,959.31
2017-09-25T01:20:01.045Z,959.25
2017-09-25T01:21:01.035Z,959.28
2017-09-25T01:22:01.028Z,959.24
2017-09-25T01:23:01.018Z,959.25
2017-09-25T01:24:01.011Z,959.22
2017-09-25T01:25:01.002Z,959.25
2017-09-25T01:26:00.993Z,959.23
2017-09-25T01:27:00.987Z,959.21
2017-09-25T01:28:00.976Z,959.23
2017-09-25T01:29:00.972Z,959.25
2017-09-25T01:30:00.959Z,959.18
2017-09-25T01:31:00.953Z,959.25
2017-09-25T01:32:00.943Z,959.22
2017-09-25T01:33:00.934Z,959.24
2017-09-25T01:34:00.939Z,959.23
2017-09-25T01:35:00.917Z,959.23
2017-09-25T01:36:00.908Z,959.21
2017-09-25T01:37:00.899Z,959.2
2017-09-25T01:38:00.891Z,959.19
2017-09-25T01:39:00.883Z,959.18
2017-09-25T01:40:00.874Z,959.16
2017-09-25T01:41:00.866Z,959.17
2017-09-25T01:42:00.857Z,959.17
2017-09-25T01:43:00.868Z,959.15
2017-09-25T01:44:00.840Z,959.16
2017-09-25T01:45:00.830Z,959.15
2017-09-25T01:46:00.824Z,959.11
2017-09-25T01:47:00.819Z,959.09
2017-09-25T01:48:00.810Z,959.09
2017-09-25T01:49:00.797Z,959.06
2017-09-25T01:50:00.799Z,959.07
2017-09-25T01:51:00.785Z,959.01
2017-09-25T01:52:00.771Z,959.05
2017-09-25T01:53:00.763Z,959.05
2017-09-25T01:54:00.756Z,958.99
2017-09-25T01:55:00.746Z,959.04
2017-09-25T01:56:00.737Z,959.01
2017-09-25T01:57:00.729Z,959.04
2017-09-25T01:58:00.721Z,958.95
2017-09-25T01:59:00.712Z,959.01
2017-09-25T02:00:00.703Z,959.03
2017-09-25T02:01:00.695Z,959.02
2017-09-25T02:02:00.704Z,959
2017-09-25T02:03:00.679Z,958.99
2017-09-25T02:04:00.672Z,958.98
2017-09-25T02:05:00.666Z,959.01
2017-09-25T02:06:00.654Z,958.97
2017-09-25T02:07:00.645Z,958.94
2017-09-25T02:08:00.637Z,958.96
2017-09-25T02:09:00.646Z,958.94
2017-09-25T02:10:00.621Z,958.93
2017-09-25T02:11:00.611Z,958.97
2017-09-25T02:12:00.604Z,958.92
2017-09-25T02:13:00.594Z,958.9
2017-09-25T02:14:00.599Z,958.93
2017-09-25T02:15:00.581Z,958.9
2017-09-25T02:16:00.594Z,958.9
2017-09-25T02:17:00.562Z,958.91
2017-09-25T02:18:00.552Z,958.9
2017-09-25T02:19:00.543Z,958.9
2017-09-25T02:20:00.536Z,958.92
2017-09-25T02:21:00.531Z,958.88
2017-09-25T02:22:00.517Z,958.9
2017-09-25T02:23:00.520Z,958.91
2017-09-25T02:24:00.501Z,958.89
2017-09-25T02:25:00.492Z,958.88
2017-09-25T02:26:00.483Z,958.87
2017-09-25T02:27:00.477Z,958.86
2017-09-25T02:28:00.467Z,958.88
2017-09-25T02:29:00.459Z,958.86
2017-09-25T02:30:00.451Z,958.82
2017-09-25T02:31:00.442Z,958.84
2017-09-25T02:32:00.433Z,958.81
2017-09-25T02:33:00.445Z,958.81
2017-09-25T02:34:00.415Z,958.81
2017-09-25T02:35:00.407Z,958.77
2017-09-25T02:36:00.399Z,958.77
2017-09-25T02:37:00.389Z,958.73
2017-09-25T02:38:00.382Z,958.76
2017-09-25T02:39:00.373Z,958.78
2017-09-25T02:40:00.364Z,958.76
2017-09-25T02:41:00.355Z,958.75
2017-09-25T02:42:00.347Z,958.72
2017-09-25T02:43:00.340Z,958.73
2017-09-25T02:44:00.329Z,958.72
2017-09-25T02:45:00.336Z,958.73
2017-09-25T02:46:00.312Z,958.7
2017-09-25T02:47:00.303Z,958.72
2017-09-25T02:48:03.362Z,958.72
2017-09-25T02:49:00.288Z,958.67
2017-09-25T02:50:00.280Z,958.65
2017-09-25T02:51:00.270Z,958.71
2017-09-25T02:52:00.261Z,958.69
2017-09-25T02:53:00.254Z,958.69
2017-09-25T02:54:00.246Z,958.64
2017-09-25T02:55:00.235Z,958.64
2017-09-25T02:56:00.228Z,958.68
2017-09-25T02:57:00.219Z,958.67
2017-09-25T02:58:00.208Z,958.71
2017-09-25T02:59:00.202Z,958.69
2017-09-25T03:00:00.194Z,958.7
2017-09-25T03:01:00.206Z,958.71
2017-09-25T03:02:00.176Z,958.73
2017-09-25T03:03:00.167Z,958.74
2017-09-25T03:04:00.159Z,958.74
2017-09-25T03:05:00.151Z,958.77
2017-09-25T03:06:00.141Z,958.77
2017-09-25T03:07:00.137Z,958.8
2017-09-25T03:08:00.125Z,958.73
2017-09-25T03:09:00.118Z,958.77
2017-09-25T03:10:00.108Z,958.82
2017-09-25T03:11:00.098Z,958.76
2017-09-25T03:12:00.089Z,958.75
2017-09-25T03:13:00.080Z,958.77
2017-09-25T03:14:00.072Z,958.77
2017-09-25T03:15:00.064Z,958.75
2017-09-25T03:16:00.056Z,958.73
2017-09-25T03:17:00.049Z,958.73
2017-09-25T03:18:00.038Z,958.71
2017-09-25T03:19:00.029Z,958.7
2017-09-25T03:20:00.020Z,958.69
2017-09-25T03:21:00.015Z,958.72
2017-09-25T03:22:00.003Z,958.72
2017-09-25T03:22:59.993Z,958.7
2017-09-25T03:23:59.984Z,958.67
2017-09-25T03:24:59.977Z,958.68
2017-09-25T03:25:59.996Z,958.63
2017-09-25T03:26:59.958Z,958.63
2017-09-25T03:27:59.949Z,958.62
2017-09-25T03:28:59.975Z,958.61
2017-09-25T03:30:00.071Z,958.62
2017-09-25T03:30:59.923Z,958.65
2017-09-25T03:31:59.916Z,958.62
2017-09-25T03:32:59.905Z,958.61
2017-09-25T03:33:59.899Z,958.65
2017-09-25T03:34:59.888Z,958.6
2017-09-25T03:35:59.906Z,958.61
2017-09-25T03:36:59.873Z,958.64
2017-09-25T03:37:59.864Z,958.65
2017-09-25T03:38:59.854Z,958.65
2017-09-25T03:39:59.846Z,958.6
2017-09-25T03:40:59.838Z,958.67
2017-09-25T03:41:59.828Z,958.61
2017-09-25T03:42:59.835Z,958.62
2017-09-25T03:43:59.810Z,958.58
2017-09-25T03:44:59.810Z,958.58
2017-09-25T03:45:59.793Z,958.58
2017-09-25T03:46:59.801Z,958.6
2017-09-25T03:47:59.776Z,958.57
2017-09-25T03:48:59.780Z,958.58
2017-09-25T03:49:59.759Z,958.58
2017-09-25T03:50:59.752Z,958.54
2017-09-25T03:51:59.741Z,958.58
2017-09-25T03:52:59.733Z,958.58
2017-09-25T03:53:59.725Z,958.56
2017-09-25T03:54:59.720Z,958.54
2017-09-25T03:55:59.709Z,958.52
2017-09-25T03:56:59.717Z,958.51
2017-09-25T03:57:59.689Z,958.58
2017-09-25T03:58:59.680Z,958.52
2017-09-25T03:59:59.682Z,958.49
2017-09-25T04:00:59.663Z,958.55
2017-09-25T04:01:59.654Z,958.5
2017-09-25T04:02:59.646Z,958.52
2017-09-25T04:03:59.647Z,958.52
2017-09-25T04:04:59.628Z,958.53
2017-09-25T04:05:59.619Z,958.5
2017-09-25T04:06:59.612Z,958.5
2017-09-25T04:07:59.602Z,958.51
2017-09-25T04:08:59.594Z,958.52
2017-09-25T04:09:59.587Z,958.53
2017-09-25T04:10:59.576Z,958.51
2017-09-25T04:11:59.567Z,958.48
2017-09-25T04:12:59.559Z,958.5
2017-09-25T04:13:59.549Z,958.51
2017-09-25T04:14:59.541Z,958.51
2017-09-25T04:15:59.535Z,958.49
2017-09-25T04:16:59.531Z,958.49
2017-09-25T04:17:59.516Z,958.51
2017-09-25T04:18:59.507Z,958.49
2017-09-25T04:19:59.496Z,958.51
2017-09-25T04:20:59.490Z,958.5
2017-09-25T04:21:59.522Z,958.5
2017-09-25T04:22:59.472Z,958.5
2017-09-25T04:23:59.463Z,958.52
2017-09-25T04:24:59.454Z,958.48
2017-09-25T04:25:59.445Z,958.53
2017-09-25T04:26:59.444Z,958.53
2017-09-25T04:27:59.429Z,958.56
2017-09-25T04:28:59.420Z,958.53
2017-09-25T04:29:59.411Z,958.54
2017-09-25T04:30:59.403Z,958.55
2017-09-25T04:31:59.396Z,958.55
2017-09-25T04:32:59.384Z,958.58
2017-09-25T04:33:59.376Z,958.53
2017-09-25T04:34:59.368Z,958.57
2017-09-25T04:35:59.361Z,958.57
2017-09-25T04:36:59.353Z,958.59
2017-09-25T04:37:59.340Z,958.55
2017-09-25T04:38:59.339Z,958.56
2017-09-25T04:39:59.324Z,958.6
2017-09-25T04:40:59.314Z,958.62
2017-09-25T04:41:59.307Z,958.64
2017-09-25T04:42:59.298Z,958.64
2017-09-25T04:43:59.304Z,958.65
2017-09-25T04:44:59.279Z,958.63
2017-09-25T04:45:59.273Z,958.66
2017-09-25T04:46:59.282Z,958.64
2017-09-25T04:47:59.253Z,958.67
2017-09-25T04:48:59.244Z,958.62
2017-09-25T04:49:59.237Z,958.64
2017-09-25T04:50:59.227Z,958.63
2017-09-25T04:51:59.219Z,958.64
2017-09-25T04:52:59.211Z,958.65
2017-09-25T04:53:59.201Z,958.6
2017-09-25T04:54:59.193Z,958.62
2017-09-25T04:55:59.184Z,958.61
2017-09-25T04:56:59.177Z,958.61
2017-09-25T04:57:59.167Z,958.62
2017-09-25T04:58:59.159Z,958.6
2017-09-25T04:59:59.149Z,958.62
2017-09-25T05:00:59.141Z,958.62
2017-09-25T05:01:59.134Z,958.61
2017-09-25T05:02:59.123Z,958.6
2017-09-25T05:03:59.115Z,958.66
2017-09-25T05:04:59.107Z,958.67
2017-09-25T05:05:59.097Z,958.65
2017-09-25T05:06:59.089Z,958.64
2017-09-25T05:07:59.092Z,958.63
2017-09-25T05:08:59.070Z,958.65
2017-09-25T05:09:59.077Z,958.64
2017-09-25T05:10:59.054Z,958.63
2017-09-25T05:11:59.044Z,958.63
2017-09-25T05:12:59.037Z,958.63
2017-09-25T05:13:59.028Z,958.64
2017-09-25T05:14:59.019Z,958.58
2017-09-25T05:15:59.010Z,958.6
2017-09-25T05:16:59.002Z,958.6
2017-09-25T05:17:58.994Z,958.6
2017-09-25T05:18:58.984Z,958.58
2017-09-25T05:19:58.976Z,958.58
2017-09-25T05:20:58.965Z,958.57
2017-09-25T05:21:59.117Z,958.59
2017-09-25T05:22:58.949Z,958.61
2017-09-25T05:23:58.940Z,958.57
2017-09-25T05:24:58.931Z,958.59
2017-09-25T05:25:58.939Z,958.57
2017-09-25T05:26:58.916Z,958.55
2017-09-25T05:27:58.905Z,958.54
2017-09-25T05:28:58.896Z,958.54
2017-09-25T05:29:58.890Z,958.51
2017-09-25T05:30:58.891Z,958.55
2017-09-25T05:31:58.868Z,958.47
2017-09-25T05:32:58.864Z,958.5
2017-09-25T05:33:58.854Z,958.48
2017-09-25T05:34:58.845Z,958.45
2017-09-25T05:35:58.834Z,958.47
2017-09-25T05:36:58.826Z,958.41
2017-09-25T05:37:58.818Z,958.38
2017-09-25T05:38:58.808Z,958.39
2017-09-25T05:39:58.801Z,958.38
2017-09-25T05:40:58.791Z,958.34
2017-09-25T05:41:58.783Z,958.34
2017-09-25T05:42:58.775Z,958.33
2017-09-25T05:43:58.770Z,958.35
2017-09-25T05:44:58.758Z,958.34
2017-09-25T05:45:58.748Z,958.34
2017-09-25T05:46:58.740Z,958.33
2017-09-25T05:47:58.731Z,958.32
2017-09-25T05:48:58.723Z,958.32
2017-09-25T05:49:58.713Z,958.3
2017-09-25T05:50:58.706Z,958.31
2017-09-25T05:51:58.697Z,958.24
2017-09-25T05:52:58.688Z,958.29
2017-09-25T05:53:58.678Z,958.26
2017-09-25T05:54:58.671Z,958.32
2017-09-25T05:55:58.663Z,958.34
2017-09-25T05:56:58.654Z,958.39
2017-09-25T05:57:58.646Z,958.38
2017-09-25T05:58:58.637Z,958.39
2017-09-25T05:59:58.628Z,958.4
2017-09-25T06:00:58.634Z,958.46
2017-09-25T06:01:58.612Z,958.45
2017-09-25T06:02:58.603Z,958.43
2017-09-25T06:03:58.594Z,958.48
2017-09-25T06:04:58.585Z,958.48
2017-09-25T06:05:58.578Z,958.49
2017-09-25T06:06:58.569Z,958.52
2017-09-25T06:07:58.558Z,958.48
2017-09-25T06:08:58.551Z,958.52
2017-09-25T06:09:58.542Z,958.54
2017-09-25T06:10:58.534Z,958.54
2017-09-25T06:11:58.524Z,958.62
2017-09-25T06:12:58.516Z,958.59
2017-09-25T06:13:58.509Z,958.61
2017-09-25T06:14:58.500Z,958.62
2017-09-25T06:15:58.491Z,958.63
2017-09-25T06:16:58.482Z,958.62
2017-09-25T06:17:58.477Z,958.65
2017-09-25T06:18:58.465Z,958.65
2017-09-25T06:19:58.456Z,958.64
2017-09-25T06:20:58.448Z,958.62
2017-09-25T06:21:58.439Z,958.63
2017-09-25T06:22:58.429Z,958.65
2017-09-25T06:23:58.421Z,958.64
2017-09-25T06:24:58.414Z,958.65
2017-09-25T06:25:58.405Z,958.66
2017-09-25T06:26:58.398Z,958.63
2017-09-25T06:27:58.439Z,958.67
2017-09-25T06:28:58.394Z,958.69
2017-09-25T06:29:58.370Z,958.68
2017-09-25T06:30:58.362Z,958.72
2017-09-25T06:31:58.354Z,958.68
2017-09-25T06:32:58.345Z,958.72
2017-09-25T06:33:58.336Z,958.7
2017-09-25T06:34:58.327Z,958.7
2017-09-25T06:35:58.320Z,958.72
2017-09-25T06:36:58.312Z,958.68
2017-09-25T06:37:58.303Z,958.69
2017-09-25T06:38:58.294Z,958.7
2017-09-25T06:39:58.286Z,958.69
2017-09-25T06:40:58.277Z,958.73
2017-09-25T06:41:58.269Z,958.73
2017-09-25T06:42:58.261Z,958.71
2017-09-25T06:43:58.253Z,958.74
2017-09-25T06:44:58.243Z,958.71
2017-09-25T06:45:58.235Z,958.75
2017-09-25T06:46:58.227Z,958.73
2017-09-25T06:47:58.220Z,958.72
2017-09-25T06:48:58.211Z,958.71
2017-09-25T06:49:58.202Z,958.73
2017-09-25T06:50:58.209Z,958.75
2017-09-25T06:51:58.185Z,958.74
2017-09-25T06:52:58.195Z,958.76
2017-09-25T06:53:58.170Z,958.76
2017-09-25T06:54:58.160Z,958.74
2017-09-25T06:55:58.152Z,958.76
2017-09-25T06:56:58.143Z,958.72
2017-09-25T06:57:58.135Z,958.75
2017-09-25T06:58:58.126Z,958.76
2017-09-25T06:59:58.119Z,958.72
2017-09-25T07:00:58.127Z,958.76
2017-09-25T07:01:58.102Z,958.78
2017-09-25T07:02:58.092Z,958.75
2017-09-25T07:03:58.108Z,958.75
2017-09-25T07:04:58.077Z,958.73
2017-09-25T07:05:58.069Z,958.73
2017-09-25T07:06:58.060Z,958.71
2017-09-25T07:07:58.051Z,958.69
2017-09-25T07:08:58.042Z,958.7
2017-09-25T07:09:58.033Z,958.71
2017-09-25T07:10:58.031Z,958.71
2017-09-25T07:11:58.019Z,958.7
2017-09-25T07:12:58.029Z,958.73
2017-09-25T07:13:58.001Z,958.73
2017-09-25T07:14:57.992Z,958.72
2017-09-25T07:15:57.983Z,958.71
2017-09-25T07:16:57.975Z,958.75
2017-09-25T07:17:57.966Z,958.74
2017-09-25T07:18:57.958Z,958.71
2017-09-25T07:19:57.950Z,958.74
2017-09-25T07:20:57.941Z,958.69
2017-09-25T07:21:57.935Z,958.71
2017-09-25T07:22:57.925Z,958.72
2017-09-25T07:23:57.917Z,958.73
2017-09-25T07:24:57.908Z,958.71
2017-09-25T07:25:57.899Z,958.74
2017-09-25T07:26:57.891Z,958.74
2017-09-25T07:27:57.887Z,958.75
2017-09-25T07:28:57.988Z,958.76
2017-09-25T07:29:57.927Z,958.75
